Time;durP1;ratioP1;P1;durP2;ratioP2;P2;SDS_P1;SDS_P2;PMS_P1;PMS_P2;Temp;Humidity;BMP_temperature;BMP_pressure;BME280_temperature;BME280_humidity;BME280_pressure;Samples;Min_cycle;Max_cycle;Signal;HPM_P1;HPM_P2
2023/06/11 00:00:11;;;;;;;0.00;0.00;;;25.10;80.00;;;;;;5095884;28;20044;-73
2023/06/11 00:02:41;;;;;;;1.08;1.02;;;24.80;80.50;;;;;;5096209;28;20016;-72
2023/06/11 00:05:09;;;;;;;0.30;0.30;;;24.70;81.00;;;;;;5095126;28;20039;-72
2023/06/11 00:07:38;;;;;;;0.10;0.10;;;24.60;81.60;;;;;;5095719;28;20024;-73
2023/06/11 00:10:05;;;;;;;1.73;0.82;;;24.60;81.80;;;;;;5095660;28;20040;-72
2023/06/11 00:12:32;;;;;;;0.10;0.10;;;24.60;81.60;;;;;;5094700;28;20371;-73
2023/06/11 00:15:02;;;;;;;0.10;0.10;;;24.80;81.60;;;;;;5095441;28;20131;-73
2023/06/11 00:17:28;;;;;;;0.10;0.10;;;24.60;82.00;;;;;;5095579;28;20030;-74
2023/06/11 00:19:54;;;;;;;0.38;0.38;;;24.30;83.70;;;;;;5095384;28;20032;-72
2023/06/11 00:22:20;;;;;;;0.10;0.10;;;24.10;84.40;;;;;;5095626;28;20020;-74
2023/06/11 00:24:46;;;;;;;0.03;0.03;;;24.10;84.50;;;;;;5095606;28;20074;-73
2023/06/11 00:27:12;;;;;;;0.00;0.00;;;24.30;84.60;;;;;;5095056;28;20099;-73
2023/06/11 00:29:37;;;;;;;0.10;0.10;;;24.30;84.30;;;;;;5095648;28;20112;-73
2023/06/11 00:32:04;;;;;;;0.55;0.55;;;24.30;84.20;;;;;;5088557;28;20386;-74
2023/06/11 00:34:29;;;;;;;0.10;0.10;;;24.40;84.60;;;;;;5093733;28;20020;-72
2023/06/11 00:36:55;;;;;;;0.10;0.10;;;24.10;85.80;;;;;;5094026;28;20069;-73
2023/06/11 00:39:21;;;;;;;0.10;0.10;;;24.30;85.60;;;;;;5095361;28;20028;-73
2023/06/11 00:41:48;;;;;;;0.00;0.00;;;24.20;86.00;;;;;;5094730;28;20117;-71
2023/06/11 00:44:17;;;;;;;0.30;0.30;;;24.10;86.80;;;;;;5093517;28;20040;-73
2023/06/11 00:46:47;;;;;;;0.08;0.08;;;24.10;87.00;;;;;;5095419;28;20025;-72
2023/06/11 00:49:13;;;;;;;0.10;0.10;;;24.10;87.30;;;;;;5111087;28;20114;-72
2023/06/11 00:51:43;;;;;;;0.10;0.10;;;24.00;87.60;;;;;;5094658;28;20489;-72
2023/06/11 00:54:12;;;;;;;0.10;0.10;;;24.00;88.20;;;;;;5094558;28;20031;-73
2023/06/11 00:56:41;;;;;;;0.75;0.75;;;24.00;88.40;;;;;;5094718;28;20024;-73
2023/06/11 00:59:07;;;;;;;0.10;0.10;;;24.10;87.80;;;;;;5093918;28;20044;-73
2023/06/11 01:02:01;;;;;;;0.10;0.10;;;24.20;88.10;;;;;;5088082;28;20016;-73
2023/06/11 01:04:29;;;;;;;0.10;0.10;;;24.10;87.60;;;;;;5095057;28;20028;-72
2023/06/11 01:06:59;;;;;;;0.00;0.00;;;23.90;89.20;;;;;;5094869;28;20518;-72
2023/06/11 01:09:29;;;;;;;0.10;0.10;;;23.80;89.60;;;;;;5094793;28;20028;-72
2023/06/11 01:11:55;;;;;;;0.20;0.20;;;23.60;90.40;;;;;;5093295;28;20020;-73
2023/06/11 01:14:22;;;;;;;1.35;0.90;;;23.60;90.60;;;;;;5093453;28;20131;-72
2023/06/11 01:17:02;;;;;;;0.10;0.10;;;23.50;91.00;;;;;;5093293;28;20400;-74
2023/06/11 01:19:52;;;;;;;0.10;0.10;;;23.50;91.40;;;;;;5110741;28;20027;-73
2023/06/11 01:22:29;;;;;;;0.05;0.05;;;23.70;91.30;;;;;;5092896;28;20059;-72
2023/06/11 01:25:15;;;;;;;0.17;0.17;;;23.80;90.90;;;;;;5092920;28;20488;-73
2023/06/11 01:27:54;;;;;;;0.00;0.00;;;23.70;91.10;;;;;;5093172;28;20023;-73
2023/06/11 01:30:20;;;;;;;0.00;0.00;;;23.70;91.40;;;;;;5093367;28;20028;-73
2023/06/11 01:32:56;;;;;;;0.10;0.10;;;23.70;91.60;;;;;;5092842;28;20111;-72
2023/06/11 01:35:27;;;;;;;0.20;0.20;;;23.80;91.40;;;;;;5092845;28;20020;-73
2023/06/11 01:37:57;;;;;;;0.88;0.65;;;23.60;91.70;;;;;;5092600;28;20028;-73
2023/06/11 01:40:31;;;;;;;0.15;0.15;;;23.30;92.40;;;;;;5093040;28;20052;-74
2023/06/11 01:42:58;;;;;;;0.10;0.10;;;23.30;93.20;;;;;;5092556;28;20042;-73
2023/06/11 01:45:26;;;;;;;0.10;0.10;;;23.40;92.60;;;;;;5092812;28;20044;-74
2023/06/11 01:47:52;;;;;;;1.25;1.17;;;23.40;92.70;;;;;;5109622;28;20065;-73
2023/06/11 01:50:19;;;;;;;0.15;0.15;;;23.20;93.40;;;;;;5109737;28;20464;-72
2023/06/11 01:52:46;;;;;;;0.03;0.03;;;23.20;93.60;;;;;;5092515;28;20090;-72
2023/06/11 01:55:12;;;;;;;0.00;0.00;;;23.20;93.80;;;;;;5092562;28;20034;-72
2023/06/11 01:57:38;;;;;;;0.03;0.03;;;23.30;94.00;;;;;;5093863;28;20476;-73
2023/06/11 02:00:09;;;;;;;0.68;0.68;;;23.40;93.70;;;;;;5092569;28;20483;-74
2023/06/11 02:02:43;;;;;;;0.10;0.10;;;23.30;93.70;;;;;;5093792;28;20027;-73
2023/06/11 02:05:09;;;;;;;0.00;0.00;;;23.30;94.00;;;;;;5091459;28;20503;-73
2023/06/11 02:07:36;;;;;;;0.20;0.20;;;23.20;94.20;;;;;;5093444;28;20073;-72
2023/06/11 02:10:02;;;;;;;0.00;0.00;;;23.10;94.50;;;;;;5093729;28;20073;-72
2023/06/11 02:12:29;;;;;;;0.10;0.10;;;23.10;94.70;;;;;;5092315;28;20024;-71
2023/06/11 02:14:55;;;;;;;0.10;0.10;;;23.10;94.90;;;;;;5092459;28;20383;-73
2023/06/11 02:17:21;;;;;;;0.10;0.10;;;23.10;95.00;;;;;;5092189;28;20020;-73
2023/06/11 02:19:47;;;;;;;3.13;0.73;;;23.20;94.90;;;;;;5092448;28;20418;-73
2023/06/11 02:22:13;;;;;;;0.10;0.10;;;23.20;94.80;;;;;;5091700;28;20479;-73
2023/06/11 02:24:39;;;;;;;0.00;0.00;;;23.10;95.10;;;;;;5093111;28;20044;-73
2023/06/11 02:27:06;;;;;;;0.10;0.10;;;23.10;95.40;;;;;;5090347;28;20024;-72
2023/06/11 02:29:33;;;;;;;0.10;0.10;;;23.00;95.60;;;;;;5092046;28;20027;-72
2023/06/11 02:31:59;;;;;;;0.00;0.00;;;23.00;95.70;;;;;;5108695;28;20024;-72
2023/06/11 02:34:25;;;;;;;0.15;0.15;;;23.00;95.70;;;;;;5091638;28;20107;-73
2023/06/11 02:36:51;;;;;;;0.00;0.00;;;23.00;95.90;;;;;;5075451;28;20112;-72
2023/06/11 02:39:17;;;;;;;0.10;0.10;;;22.90;96.10;;;;;;5080106;28;20027;-73
2023/06/11 02:41:43;;;;;;;0.00;0.00;;;22.90;96.40;;;;;;5091782;28;20028;-73
2023/06/11 02:44:09;;;;;;;0.00;0.00;;;22.80;97.00;;;;;;5092837;28;20585;-74
2023/06/11 02:46:35;;;;;;;0.00;0.00;;;22.70;97.00;;;;;;5091906;28;20039;-72
2023/06/11 02:49:01;;;;;;;0.00;0.00;;;22.70;97.30;;;;;;5093081;28;20047;-73
2023/06/11 02:51:26;;;;;;;0.10;0.10;;;22.70;97.60;;;;;;5091853;28;20104;-71
2023/06/11 02:53:52;;;;;;;0.10;0.10;;;22.60;98.00;;;;;;5092827;28;20060;-74
2023/06/11 02:56:18;;;;;;;0.05;0.05;;;22.60;98.10;;;;;;5092749;28;20491;-73
2023/06/11 02:58:44;;;;;;;0.00;0.00;;;22.60;97.80;;;;;;5091464;28;20571;-72
2023/06/11 03:01:11;;;;;;;0.10;0.10;;;22.70;97.90;;;;;;5077207;28;20024;-74
2023/06/11 03:03:37;;;;;;;0.40;0.40;;;22.60;98.10;;;;;;5092605;28;20601;-73
2023/06/11 03:06:03;;;;;;;0.50;0.50;;;22.40;98.60;;;;;;5090949;28;20107;-71
2023/06/11 03:08:30;;;;;;;0.00;0.00;;;22.40;99.00;;;;;;5091389;28;20027;-73
2023/06/11 03:10:56;;;;;;;0.05;0.05;;;22.40;99.20;;;;;;5091693;28;20024;-72
2023/06/11 03:13:22;;;;;;;3.35;0.65;;;22.40;99.10;;;;;;5092812;28;20388;-74
2023/06/11 03:15:50;;;;;;;0.03;0.03;;;22.40;99.20;;;;;;5091758;28;20119;-73
2023/06/11 03:18:16;;;;;;;0.00;0.00;;;22.30;99.50;;;;;;5095612;28;20065;-73
2023/06/11 03:20:43;;;;;;;0.00;0.00;;;22.30;99.60;;;;;;5095089;28;20058;-73
2023/06/11 03:23:10;;;;;;;0.30;0.30;;;22.20;99.90;;;;;;5095364;28;20116;-72
2023/06/11 03:25:37;;;;;;;0.10;0.10;;;22.20;99.90;;;;;;5095152;28;20039;-72
2023/06/11 03:28:04;;;;;;;0.15;0.15;;;22.10;99.90;;;;;;5095125;28;20020;-72
2023/06/11 03:30:30;;;;;;;0.10;0.10;;;21.90;99.90;;;;;;5095765;28;20024;-73
2023/06/11 03:32:56;;;;;;;0.00;0.00;;;21.80;99.90;;;;;;5094623;28;20479;-74
2023/06/11 03:35:22;;;;;;;0.00;0.00;;;22.10;99.90;;;;;;5095958;28;20024;-72
2023/06/11 03:37:48;;;;;;;0.05;0.05;;;22.20;99.90;;;;;;5095084;28;20396;-73
2023/06/11 03:40:19;;;;;;;0.10;0.10;;;22.00;99.90;;;;;;5095113;28;20016;-73
2023/06/11 03:42:47;;;;;;;0.10;0.10;;;21.90;99.90;;;;;;5094682;28;20110;-71
2023/06/11 03:45:13;;;;;;;0.10;0.10;;;21.90;99.90;;;;;;5094486;28;20036;-73
2023/06/11 03:47:39;;;;;;;0.00;0.00;;;21.90;99.90;;;;;;5112346;28;20028;-72
2023/06/11 03:50:07;;;;;;;0.10;0.10;;;22.10;99.90;;;;;;5094292;28;20032;-73
2023/06/11 03:52:33;;;;;;;0.40;0.40;;;22.20;99.90;;;;;;5095026;28;20012;-72
2023/06/11 03:54:59;;;;;;;0.10;0.10;;;22.10;99.90;;;;;;5094605;28;20027;-73
2023/06/11 03:57:25;;;;;;;0.03;0.03;;;22.30;99.90;;;;;;5111473;28;20035;-73
2023/06/11 03:59:52;;;;;;;0.10;0.10;;;22.50;99.90;;;;;;5082689;28;20031;-71
2023/06/11 04:02:17;;;;;;;0.10;0.10;;;22.30;99.90;;;;;;5092376;28;20111;-74
2023/06/11 04:04:44;;;;;;;0.00;0.00;;;22.30;99.90;;;;;;5094322;28;20046;-73
2023/06/11 04:07:10;;;;;;;0.47;0.47;;;22.20;99.90;;;;;;5094581;28;20020;-72
2023/06/11 04:09:38;;;;;;;0.00;0.00;;;22.10;99.90;;;;;;5094629;28;20479;-72
2023/06/11 04:12:05;;;;;;;0.85;0.68;;;22.00;99.90;;;;;;5093713;28;20059;-71
2023/06/11 04:14:31;;;;;;;0.00;0.00;;;22.20;99.90;;;;;;5094588;28;20093;-73
2023/06/11 04:16:57;;;;;;;0.00;0.00;;;22.30;99.90;;;;;;5095854;28;20016;-72
2023/06/11 04:19:23;;;;;;;0.10;0.10;;;22.10;99.90;;;;;;5094205;28;20165;-73
2023/06/11 04:21:49;;;;;;;0.00;0.00;;;22.10;99.90;;;;;;5094352;28;20031;-72
2023/06/11 04:24:15;;;;;;;0.43;0.43;;;22.10;99.90;;;;;;5111042;28;20024;-74
2023/06/11 04:26:43;;;;;;;0.10;0.10;;;22.00;99.90;;;;;;5094233;28;20028;-72
2023/06/11 04:29:09;;;;;;;0.00;0.00;;;21.90;99.90;;;;;;5110509;28;20540;-72
2023/06/11 04:31:35;;;;;;;0.10;0.10;;;22.00;99.90;;;;;;5111065;28;20028;-73
2023/06/11 04:34:06;;;;;;;4.78;2.00;;;22.20;99.90;;;;;;5093501;28;20024;-72
2023/06/11 04:36:33;;;;;;;;;;;22.30;99.90;;;;;;5111331;28;20023;-73
2023/06/11 04:39:01;;;;;;;0.00;0.00;;;22.30;99.90;;;;;;5094318;28;19904;-72
2023/06/11 04:41:29;;;;;;;0.10;0.10;;;22.40;99.90;;;;;;5093884;28;20479;-73
2023/06/11 04:43:56;;;;;;;0.10;0.10;;;22.60;99.90;;;;;;5093801;28;20031;-74
2023/06/11 04:46:23;;;;;;;0.52;0.50;;;22.70;99.90;;;;;;5094185;28;20035;-72
2023/06/11 04:48:50;;;;;;;0.08;0.08;;;22.50;99.90;;;;;;5093826;28;20115;-73
2023/06/11 04:51:17;;;;;;;1.27;1.23;;;22.20;99.90;;;;;;5093914;28;20130;-72
2023/06/11 04:53:46;;;;;;;0.00;0.00;;;22.20;99.90;;;;;;5093378;28;20023;-73
2023/06/11 04:56:15;;;;;;;0.15;0.15;;;22.40;99.90;;;;;;5094156;28;20086;-73
2023/06/11 04:58:42;;;;;;;0.10;0.10;;;22.60;99.90;;;;;;5093680;28;20047;-72
2023/06/11 05:01:09;;;;;;;0.10;0.10;;;22.80;99.90;;;;;;5093368;28;20528;-73
2023/06/11 05:03:38;;;;;;;0.28;0.25;;;22.80;99.90;;;;;;5094951;28;20039;-73
2023/06/11 05:06:08;;;;;;;0.05;0.05;;;22.80;99.90;;;;;;5093350;28;20028;-73
2023/06/11 05:08:36;;;;;;;0.10;0.10;;;22.70;99.90;;;;;;5093418;28;20020;-71
2023/06/11 05:11:03;;;;;;;0.22;0.22;;;22.90;99.90;;;;;;5093122;28;20510;-72
2023/06/11 05:13:31;;;;;;;0.00;0.00;;;23.00;99.90;;;;;;5093217;28;20036;-74
2023/06/11 05:16:02;;;;;;;0.13;0.13;;;22.90;99.90;;;;;;5092950;28;20077;-71
2023/06/11 05:18:30;;;;;;;1.27;0.75;;;22.90;99.90;;;;;;5093178;28;20048;-72
2023/06/11 05:21:00;;;;;;;0.35;0.35;;;23.10;99.90;;;;;;5093276;28;20030;-73
2023/06/11 05:23:31;;;;;;;0.13;0.13;;;23.20;99.90;;;;;;5094451;28;20089;-72
2023/06/11 05:26:08;;;;;;;0.00;0.00;;;23.20;99.90;;;;;;5093015;28;20028;-74
2023/06/11 05:28:38;;;;;;;0.28;0.28;;;23.20;99.90;;;;;;5092794;28;20031;-73
2023/06/11 05:31:06;;;;;;;0.47;0.47;;;23.20;99.90;;;;;;5093181;28;20024;-74
2023/06/11 05:33:32;;;;;;;0.45;0.45;;;23.60;99.90;;;;;;5085060;28;20052;-74
2023/06/11 05:35:58;;;;;;;0.22;0.22;;;24.00;99.90;;;;;;5087320;28;20103;-73
2023/06/11 05:38:24;;;;;;;6.70;5.60;;;24.00;99.80;;;;;;5093964;28;20031;-71
2023/06/11 05:40:51;;;;;;;0.38;0.38;;;24.20;98.70;;;;;;5092722;28;20024;-72
2023/06/11 05:43:17;;;;;;;0.17;0.17;;;24.40;98.70;;;;;;5075838;28;20563;-70
2023/06/11 05:45:49;;;;;;;0.38;0.38;;;24.40;98.30;;;;;;5076460;28;20036;-71
2023/06/11 05:48:18;;;;;;;0.20;0.20;;;24.40;98.10;;;;;;5064749;28;20041;-71
2023/06/11 05:50:43;;;;;;;2.90;0.45;;;24.50;97.90;;;;;;5084556;28;20020;-70
2023/06/11 05:53:10;;;;;;;0.40;0.40;;;24.50;97.70;;;;;;5086531;28;20028;-71
2023/06/11 05:55:38;;;;;;;0.10;0.10;;;24.40;97.90;;;;;;5080210;28;20488;-71
2023/06/11 05:58:05;;;;;;;1.02;0.77;;;24.60;98.00;;;;;;5078453;28;20061;-70
2023/06/11 06:00:31;;;;;;;0.30;0.30;;;24.60;97.80;;;;;;5090718;28;20032;-71
2023/06/11 06:02:58;;;;;;;0.05;0.05;;;24.40;98.20;;;;;;5084635;28;20372;-71
2023/06/11 06:05:28;;;;;;;1.90;0.50;;;24.30;98.80;;;;;;5086995;28;20054;-70
2023/06/11 06:07:55;;;;;;;0.32;0.32;;;24.70;97.80;;;;;;5086792;28;20099;-71
2023/06/11 06:10:22;;;;;;;0.00;0.00;;;24.60;97.30;;;;;;5087650;28;20030;-70
2023/06/11 06:12:48;;;;;;;0.10;0.10;;;24.60;97.80;;;;;;5086823;28;20066;-72
2023/06/11 06:15:14;;;;;;;0.00;0.00;;;24.60;97.30;;;;;;5085296;28;20019;-72
2023/06/11 06:17:41;;;;;;;1.20;1.10;;;24.60;97.80;;;;;;5083613;28;20020;-70
2023/06/11 06:20:10;;;;;;;0.30;0.30;;;24.70;97.20;;;;;;5082363;28;20025;-70
2023/06/11 06:22:38;;;;;;;0.00;0.00;;;24.90;97.20;;;;;;5075477;28;20135;-71
2023/06/11 06:25:05;;;;;;;1.10;1.00;;;24.80;96.90;;;;;;5083534;28;20036;-71
2023/06/11 06:27:31;;;;;;;0.43;0.43;;;25.00;96.80;;;;;;5079270;28;20048;-72
2023/06/11 06:29:57;;;;;;;0.57;0.57;;;25.00;96.10;;;;;;5084217;28;20032;-70
2023/06/11 06:32:23;;;;;;;0.00;0.00;;;25.00;96.70;;;;;;5090508;28;20031;-71
2023/06/11 06:34:49;;;;;;;0.10;0.10;;;25.30;96.60;;;;;;5088550;28;20426;-71
2023/06/11 06:37:15;;;;;;;0.20;0.20;;;25.30;96.40;;;;;;5086326;28;20058;-71
2023/06/11 06:39:44;;;;;;;0.17;0.17;;;25.40;96.10;;;;;;5083371;28;20024;-69
2023/06/11 06:42:10;;;;;;;0.03;0.03;;;25.50;95.60;;;;;;5079418;28;20081;-72
2023/06/11 06:44:45;;;;;;;1.85;1.63;;;25.20;96.40;;;;;;5090410;28;20453;-72
2023/06/11 06:47:14;;;;;;;0.30;0.30;;;25.20;96.20;;;;;;5085169;28;20035;-69
2023/06/11 06:49:40;;;;;;;1.85;1.05;;;25.50;96.20;;;;;;5083360;28;20021;-69
2023/06/11 06:52:07;;;;;;;0.55;0.55;;;25.40;96.10;;;;;;5084447;28;20073;-70
2023/06/11 06:54:33;;;;;;;0.10;0.10;;;25.50;96.30;;;;;;5090604;28;20376;-70
2023/06/11 06:56:59;;;;;;;2.40;2.20;;;25.60;96.10;;;;;;5089276;28;20028;-69
2023/06/11 06:59:25;;;;;;;0.95;0.77;;;26.00;95.90;;;;;;5078723;28;20030;-69
2023/06/11 07:01:52;;;;;;;1.30;0.45;;;26.30;95.20;;;;;;5081369;28;20021;-68
2023/06/11 07:04:17;;;;;;;1.38;0.93;;;26.40;95.20;;;;;;5086582;28;20045;-70
2023/06/11 07:06:43;;;;;;;2.13;1.95;;;26.20;94.90;;;;;;5088815;28;20452;-70
2023/06/11 07:09:09;;;;;;;0.75;0.75;;;26.50;94.90;;;;;;5076908;28;20403;-70
2023/06/11 07:11:36;;;;;;;1.30;1.05;;;26.50;94.70;;;;;;5075718;28;20020;-70
2023/06/11 07:14:02;;;;;;;0.60;0.60;;;26.30;95.00;;;;;;5080690;28;20376;-71
2023/06/11 07:16:29;;;;;;;0.20;0.20;;;26.20;94.60;;;;;;5079539;28;20081;-70
2023/06/11 07:18:58;;;;;;;0.82;0.55;;;26.50;95.00;;;;;;5087705;28;20554;-69
2023/06/11 07:21:24;;;;;;;7.72;1.35;;;26.30;94.60;;;;;;5075127;28;20019;-69
2023/06/11 07:23:50;;;;;;;0.10;0.10;;;26.30;95.10;;;;;;5081530;28;20036;-71
2023/06/11 07:26:18;;;;;;;0.00;0.00;;;26.50;95.10;;;;;;5081542;28;20067;-69
2023/06/11 07:28:45;;;;;;;0.20;0.20;;;26.80;94.90;;;;;;5087858;28;20109;-71
2023/06/11 07:31:12;;;;;;;0.20;0.20;;;27.10;94.20;;;;;;5076257;28;20059;-68
2023/06/11 07:33:41;;;;;;;0.08;0.08;;;27.20;94.30;;;;;;5079218;28;20341;-72
2023/06/11 07:36:07;;;;;;;0.30;0.25;;;27.70;93.90;;;;;;5078989;28;20078;-70
2023/06/11 07:38:33;;;;;;;0.75;0.75;;;27.70;93.70;;;;;;5069590;28;20508;-70
2023/06/11 07:41:01;;;;;;;0.63;0.47;;;27.60;93.60;;;;;;5069281;28;20567;-71
2023/06/11 07:43:27;;;;;;;0.30;0.25;;;27.70;93.70;;;;;;5069008;28;20384;-69
2023/06/11 07:45:53;;;;;;;0.30;0.30;;;27.60;93.40;;;;;;5071425;28;20043;-70
2023/06/11 07:48:19;;;;;;;0.08;0.08;;;27.70;93.80;;;;;;5069764;28;20079;-72
2023/06/11 07:50:49;;;;;;;0.20;0.20;;;28.00;93.50;;;;;;5069349;28;20483;-72
2023/06/11 07:53:16;;;;;;;0.00;0.00;;;28.10;93.40;;;;;;5071015;28;20486;-71
2023/06/11 07:55:42;;;;;;;0.38;0.38;;;28.40;93.10;;;;;;5069978;28;20090;-72
2023/06/11 07:58:08;;;;;;;0.00;0.00;;;28.70;91.70;;;;;;5072576;28;20119;-71
2023/06/11 08:00:34;;;;;;;0.30;0.20;;;28.70;91.70;;;;;;5084400;28;20052;-72
2023/06/11 08:03:00;;;;;;;0.00;0.00;;;28.60;92.60;;;;;;5091489;28;20098;-72
2023/06/11 08:05:26;;;;;;;1.65;1.55;;;29.00;92.10;;;;;;5094265;28;20063;-72
2023/06/11 08:07:52;;;;;;;0.00;0.00;;;29.30;91.70;;;;;;5087910;28;20487;-71
2023/06/11 08:10:18;;;;;;;2.55;1.48;;;29.10;91.40;;;;;;5089296;28;20044;-70
2023/06/11 08:12:44;;;;;;;0.30;0.30;;;28.90;91.10;;;;;;5091708;28;20024;-71
2023/06/11 08:15:10;;;;;;;0.00;0.00;;;28.60;91.10;;;;;;5089719;28;20028;-70
2023/06/11 08:17:35;;;;;;;0.20;0.20;;;28.30;91.40;;;;;;5094183;28;20103;-76
2023/06/11 08:20:05;;;;;;;0.65;0.65;;;28.60;92.00;;;;;;5086743;28;20131;-73
2023/06/11 08:22:31;;;;;;;19.02;1.00;;;28.80;91.70;;;;;;5092051;28;20024;-74
2023/06/11 08:24:57;;;;;;;1.30;1.20;;;28.60;91.30;;;;;;5094251;28;20032;-74
2023/06/11 08:27:23;;;;;;;1.65;1.17;;;28.70;92.20;;;;;;5094244;28;20111;-72
2023/06/11 08:29:48;;;;;;;0.20;0.20;;;28.90;91.60;;;;;;5094613;28;20103;-74
2023/06/11 08:32:15;;;;;;;0.80;0.70;;;28.90;91.80;;;;;;5094341;28;20063;-72
2023/06/11 08:34:40;;;;;;;2.08;1.88;;;28.90;91.30;;;;;;5094190;28;20016;-73
2023/06/11 08:37:06;;;;;;;1.10;1.05;;;29.10;91.10;;;;;;5077654;28;20036;-74
2023/06/11 08:39:32;;;;;;;0.10;0.10;;;29.10;91.10;;;;;;5073988;28;20026;-73
2023/06/11 08:41:58;;;;;;;4.47;2.70;;;29.40;91.50;;;;;;5073425;28;20043;-72
2023/06/11 08:44:24;;;;;;;0.00;0.00;;;29.30;90.80;;;;;;5073860;28;20055;-72
2023/06/11 08:46:54;;;;;;;0.10;0.10;;;29.30;91.30;;;;;;5081498;28;20031;-74
2023/06/11 08:49:21;;;;;;;0.10;0.10;;;29.60;91.60;;;;;;5092898;28;20055;-73
2023/06/11 08:51:48;;;;;;;2.63;1.05;;;29.70;91.30;;;;;;5090330;28;20073;-73
2023/06/11 08:54:15;;;;;;;0.65;0.47;;;29.60;90.80;;;;;;5093371;28;20040;-75
2023/06/11 08:56:41;;;;;;;0.57;0.47;;;29.90;90.40;;;;;;5090253;28;20030;-73
2023/06/11 08:59:08;;;;;;;0.00;0.00;;;30.30;90.00;;;;;;5081675;28;20024;-72
2023/06/11 09:01:33;;;;;;;0.50;0.50;;;30.10;89.70;;;;;;5093777;28;20028;-74
2023/06/11 09:04:00;;;;;;;0.40;0.32;;;29.90;89.80;;;;;;5082072;28;20024;-72
2023/06/11 09:06:27;;;;;;;0.88;0.80;;;29.90;90.30;;;;;;5091768;28;20036;-73
2023/06/11 09:09:05;;;;;;;0.45;0.45;;;29.90;89.10;;;;;;5079344;28;20032;-74
2023/06/11 09:11:36;;;;;;;0.30;0.30;;;30.30;88.90;;;;;;5078392;28;20113;-74
2023/06/11 09:14:03;;;;;;;0.47;0.47;;;30.40;88.50;;;;;;5080689;28;20032;-73
2023/06/11 09:16:29;;;;;;;0.60;0.60;;;30.10;88.50;;;;;;5073965;28;20384;-73
2023/06/11 09:18:56;;;;;;;1.02;0.93;;;30.10;88.90;;;;;;5087382;28;20035;-73
2023/06/11 09:21:25;;;;;;;0.57;0.57;;;30.20;89.60;;;;;;5078410;28;20464;-73
2023/06/11 09:23:51;;;;;;;0.35;0.35;;;30.60;89.50;;;;;;5078078;28;20123;-73
2023/06/11 09:26:18;;;;;;;0.80;0.80;;;31.00;88.40;;;;;;5092124;28;20020;-73
2023/06/11 09:28:46;;;;;;;4.03;0.98;;;30.90;86.20;;;;;;5092220;28;20028;-73
2023/06/11 09:31:12;;;;;;;0.47;0.47;;;30.70;86.50;;;;;;5077460;28;20031;-74
2023/06/11 09:33:38;;;;;;;0.10;0.10;;;30.70;87.20;;;;;;5089948;28;20032;-72
2023/06/11 09:36:04;;;;;;;0.82;0.82;;;30.90;88.10;;;;;;5091368;28;20028;-72
2023/06/11 09:38:33;;;;;;;0.75;0.75;;;31.20;87.50;;;;;;5081589;28;20031;-73
2023/06/11 09:40:59;;;;;;;1.65;1.55;;;31.20;87.00;;;;;;5088850;28;20035;-73
2023/06/11 09:43:25;;;;;;;4.10;1.35;;;31.00;85.80;;;;;;5089950;28;20040;-75
2023/06/11 09:45:54;;;;;;;0.82;0.60;;;30.60;86.60;;;;;;5086098;28;20039;-75
2023/06/11 09:48:24;;;;;;;0.68;0.68;;;30.40;85.90;;;;;;5083902;28;20082;-70
2023/06/11 09:50:52;;;;;;;1.80;1.17;;;30.50;86.80;;;;;;5085076;28;20036;-76
2023/06/11 09:53:19;;;;;;;3.00;1.70;;;30.80;86.70;;;;;;5090404;28;20028;-73
2023/06/11 09:55:50;;;;;;;0.40;0.40;;;31.10;85.70;;;;;;5080120;28;20020;-75
2023/06/11 09:58:22;;;;;;;1.33;1.23;;;31.40;84.40;;;;;;5089910;28;20068;-74
2023/06/11 10:00:50;;;;;;;0.10;0.10;;;31.60;84.80;;;;;;5088769;28;20020;-74
2023/06/11 10:03:16;;;;;;;1.30;1.08;;;31.90;85.70;;;;;;5081285;28;20043;-73
2023/06/11 10:05:42;;;;;;;6.38;2.63;;;31.30;82.90;;;;;;5076590;28;20028;-74
2023/06/11 10:08:16;;;;;;;1.58;0.75;;;31.00;84.10;;;;;;5073047;28;20389;-73
2023/06/11 10:10:45;;;;;;;0.03;0.03;;;31.20;84.70;;;;;;5088656;28;20027;-73
2023/06/11 10:13:11;;;;;;;0.20;0.20;;;31.60;84.70;;;;;;5080821;28;20387;-74
2023/06/11 10:15:37;;;;;;;0.50;0.50;;;32.10;83.30;;;;;;5088947;28;20028;-74
2023/06/11 10:18:13;;;;;;;2.45;2.03;;;32.20;81.40;;;;;;5089168;28;20039;-73
2023/06/11 10:20:54;;;;;;;2.40;0.85;;;31.60;81.90;;;;;;5089366;28;20036;-72
2023/06/11 10:23:21;;;;;;;0.52;0.52;;;31.20;82.80;;;;;;5104569;28;20491;-75
2023/06/11 10:25:54;;;;;;;2.45;1.40;;;31.70;84.20;;;;;;5090866;28;20403;-76
2023/06/11 10:28:34;;;;;;;0.60;0.60;;;31.50;82.60;;;;;;5089117;28;20020;-74
2023/06/11 10:31:00;;;;;;;0.75;0.30;;;31.60;84.10;;;;;;5091460;28;20479;-73
2023/06/11 10:33:45;;;;;;;0.55;0.10;;;32.00;82.40;;;;;;5082460;28;20020;-73
2023/06/11 10:36:24;;;;;;;1.95;1.30;;;32.30;82.60;;;;;;5082895;28;20036;-74
2023/06/11 10:38:52;;;;;;;0.60;0.60;;;32.10;81.60;;;;;;5086635;28;20020;-73
2023/06/11 10:41:29;;;;;;;0.80;0.80;;;32.20;81.10;;;;;;5077178;28;20024;-73
2023/06/11 10:43:59;;;;;;;0.30;0.30;;;32.40;82.30;;;;;;5079682;28;20031;-76
2023/06/11 10:46:26;;;;;;;0.10;0.10;;;32.70;81.00;;;;;;5080844;28;20100;-73
2023/06/11 10:48:54;;;;;;;0.47;0.47;;;33.20;80.80;;;;;;5091581;28;20027;-73
2023/06/11 10:51:21;;;;;;;0.17;0.17;;;33.30;80.90;;;;;;5086552;28;20132;-74
2023/06/11 10:53:58;;;;;;;0.38;0.38;;;33.20;80.80;;;;;;5082721;28;20016;-86
2023/06/11 10:56:26;;;;;;;0.25;0.25;;;33.50;79.80;;;;;;5069896;28;20115;-72
2023/06/11 10:58:53;;;;;;;1.65;0.50;;;33.70;78.70;;;;;;5085839;28;20024;-74
2023/06/11 11:01:22;;;;;;;1.35;0.75;;;33.80;78.80;;;;;;5090966;28;20032;-75
2023/06/11 11:03:50;;;;;;;0.40;0.40;;;33.90;78.20;;;;;;5090381;28;20024;-73
2023/06/11 11:06:26;;;;;;;0.98;0.75;;;33.50;78.10;;;;;;5092507;28;20075;-74
2023/06/11 11:08:55;;;;;;;0.60;0.52;;;33.60;78.90;;;;;;5088168;28;20016;-74
2023/06/11 11:11:22;;;;;;;0.00;0.00;;;33.40;77.60;;;;;;5092776;28;20036;-73
2023/06/11 11:13:48;;;;;;;0.20;0.20;;;33.40;78.40;;;;;;5092580;28;20012;-72
2023/06/11 11:16:14;;;;;;;0.52;0.52;;;33.50;78.60;;;;;;5092781;28;20036;-72
2023/06/11 11:18:40;;;;;;;3.30;1.73;;;33.20;78.60;;;;;;5092391;28;20012;-75
2023/06/11 11:21:06;;;;;;;0.73;0.73;;;33.30;78.80;;;;;;5077854;28;20468;-74
2023/06/11 11:23:32;;;;;;;0.40;0.40;;;33.20;78.00;;;;;;5092009;28;20119;-74
2023/06/11 11:25:58;;;;;;;0.10;0.10;;;33.40;77.20;;;;;;5092047;28;20028;-74
2023/06/11 11:28:24;;;;;;;1.40;0.73;;;33.60;78.60;;;;;;5092771;28;20039;-73
2023/06/11 11:30:53;;;;;;;0.28;0.28;;;33.50;76.30;;;;;;5091975;28;20141;-73
2023/06/11 11:33:19;;;;;;;0.50;0.50;;;33.20;76.30;;;;;;5091579;28;20059;-74
2023/06/11 11:35:49;;;;;;;2.22;1.17;;;33.10;75.50;;;;;;5090716;28;20770;-73
2023/06/11 11:38:15;;;;;;;0.40;0.40;;;33.00;76.90;;;;;;5094187;28;20174;-73
2023/06/11 11:40:41;;;;;;;0.75;0.65;;;33.40;75.90;;;;;;5095128;28;20059;-75
2023/06/11 11:43:11;;;;;;;7.15;0.95;;;33.40;75.10;;;;;;5096322;28;20179;-73
2023/06/11 11:45:37;;;;;;;0.40;0.40;;;33.00;75.40;;;;;;5096221;28;20033;-75
2023/06/11 11:48:03;;;;;;;1.75;1.23;;;32.60;75.60;;;;;;5095741;28;20487;-74
2023/06/11 11:50:33;;;;;;;10.80;1.58;;;32.40;75.10;;;;;;5095819;28;20026;-74
2023/06/11 11:53:09;;;;;;;1.45;1.33;;;32.70;75.10;;;;;;5096339;28;20032;-75
2023/06/11 11:55:39;;;;;;;0.70;0.57;;;32.50;74.60;;;;;;5095820;28;20069;-75
2023/06/11 11:58:06;;;;;;;1.70;1.38;;;32.40;74.00;;;;;;5111933;28;20024;-75
2023/06/11 12:00:33;;;;;;;0.43;0.40;;;32.80;75.30;;;;;;5080142;28;20727;-75
2023/06/11 12:03:07;;;;;;;0.90;0.70;;;32.80;75.20;;;;;;5095969;28;20359;-74
2023/06/11 12:05:33;;;;;;;0.20;0.20;;;33.00;74.70;;;;;;5095394;28;20395;-75
2023/06/11 12:08:00;;;;;;;1.00;0.90;;;33.10;73.70;;;;;;5111279;28;20046;-73
2023/06/11 12:10:26;;;;;;;1.60;1.25;;;33.00;74.50;;;;;;5092992;28;20024;-74
2023/06/11 12:12:53;;;;;;;1.30;1.02;;;32.70;74.80;;;;;;5095886;28;20024;-74
2023/06/11 12:15:19;;;;;;;1.38;0.90;;;32.70;75.30;;;;;;5095330;28;20158;-74
2023/06/11 12:17:45;;;;;;;2.33;1.35;;;32.80;73.90;;;;;;5110926;28;20023;-74
2023/06/11 12:20:11;;;;;;;0.60;0.60;;;33.00;75.00;;;;;;5095612;28;20028;-73
2023/06/11 12:22:38;;;;;;;1.38;1.27;;;34.10;73.20;;;;;;5095580;28;20103;-76
2023/06/11 12:25:05;;;;;;;2.50;1.17;;;34.30;71.90;;;;;;5095446;28;20396;-74
2023/06/11 12:27:31;;;;;;;0.52;0.52;;;33.60;72.90;;;;;;5093586;28;20504;-76
2023/06/11 12:29:57;;;;;;;1.58;1.48;;;33.60;73.20;;;;;;5095328;28;20070;-74
2023/06/11 12:32:27;;;;;;;0.60;0.60;;;33.40;72.80;;;;;;5095067;28;20472;-72
2023/06/11 12:34:53;;;;;;;1.27;1.13;;;33.40;72.10;;;;;;5095043;28;20539;-75
2023/06/11 12:37:20;;;;;;;0.80;0.80;;;33.50;70.80;;;;;;5095461;28;20107;-73
2023/06/11 12:39:46;;;;;;;0.63;0.63;;;33.40;71.90;;;;;;5094816;28;20434;-75
2023/06/11 12:42:15;;;;;;;1.73;1.13;;;33.70;71.50;;;;;;5094864;28;20077;-75
2023/06/11 12:44:41;;;;;;;1.98;1.45;;;34.00;72.30;;;;;;5110713;28;20044;-73
2023/06/11 12:47:08;;;;;;;0.75;0.52;;;34.30;72.50;;;;;;5095005;28;20024;-73
2023/06/11 12:49:34;;;;;;;1.45;0.90;;;34.80;70.10;;;;;;5094286;28;20443;-73